LPMA/FNC METAR and TAF weather

Enter ICAO airport designator
Station Type Date Time Source
LPMA METAR 2022/06/30 13:30 UTC NOAA

LPMA 301330Z 01010G20KT 320V050 9999 SCT016 SCT030 22/13 Q1022


Station Type Date Time Source
LPMA Decoded METAR 2022/06/30 13:30 UTC NOAA

Aeroporto Da Madeira, Portugal (LPMA) 32-41-52N 016-46-28W
Jun 30, 2022 - 09:30 AM EDT / 2022.06.30 1330 UTC
Wind: from the N (010 degrees) at 12 MPH (10 KT) gusting to 23 MPH (20 KT) (direction variable):0
Visibility: greater than 7 mile(s):0
Sky conditions: partly cloudy
Temperature: 71 F (22 C)
Dew Point: 55 F (13 C)
Relative Humidity: 56%
Pressure (altimeter): 30.18 in. Hg (1022 hPa)
ob: LPMA 301330Z 01010G20KT 320V050 9999 SCT016 SCT030 22/13 Q1022
cycle: 13

Station Type Date Time Source
LPMA TAF 2022/06/30 12:18 UTC NOAA

TAF LPMA 301100Z 3012/0112 01013KT 9999 SCT016 BKN030
TEMPO 3012/0112 02017G27KT BKN015

Example: see airport list